createdAt,value
2019-02-24T00:01:38.010Z,13.87
2019-02-24T00:04:06.530Z,14.13
2019-02-24T00:06:35.274Z,14.40
2019-02-24T00:09:04.219Z,14.97
2019-02-24T00:11:32.773Z,15.37
2019-02-24T00:14:01.286Z,14.33
2019-02-24T00:16:29.841Z,17.23
2019-02-24T00:18:58.397Z,14.87
2019-02-24T00:21:26.949Z,14.03
2019-02-24T00:23:55.492Z,15.30
2019-02-24T00:26:24.290Z,15.30
2019-02-24T00:28:52.766Z,15.53
2019-02-24T00:31:21.252Z,15.43
2019-02-24T00:33:49.758Z,14.63
2019-02-24T00:36:18.253Z,14.20
2019-02-24T00:38:46.745Z,15.47
2019-02-24T00:41:15.213Z,15.20
2019-02-24T00:43:43.709Z,15.50
2019-02-24T00:46:12.196Z,15.70
2019-02-24T00:48:40.676Z,15.23
2019-02-24T00:51:09.182Z,15.43
2019-02-24T00:53:37.676Z,16.60
2019-02-24T00:56:06.181Z,15.93
2019-02-24T00:58:34.756Z,16.23
2019-02-24T01:01:03.231Z,15.27
2019-02-24T01:03:31.818Z,16.43
2019-02-24T01:06:00.372Z,15.27
2019-02-24T01:08:28.854Z,15.17
2019-02-24T01:10:57.348Z,14.13
2019-02-24T01:13:26.036Z,13.87
2019-02-24T01:15:54.537Z,14.77
2019-02-24T01:18:23.052Z,14.53
2019-02-24T01:20:51.540Z,14.13
2019-02-24T01:23:20.022Z,16.17
2019-02-24T01:25:48.531Z,14.17
2019-02-24T01:28:25.046Z,15.80
2019-02-24T01:30:47.293Z,15.90
2019-02-24T01:33:15.809Z,14.47
2019-02-24T01:35:44.289Z,15.60
2019-02-24T01:38:12.848Z,15.73
2019-02-24T01:40:41.343Z,15.07
2019-02-24T01:43:09.833Z,16.00
2019-02-24T01:45:38.305Z,16.13
2019-02-24T01:48:06.876Z,16.37
2019-02-24T01:50:35.392Z,15.20
2019-02-24T01:53:03.990Z,15.27
2019-02-24T01:55:32.477Z,15.97
2019-02-24T01:58:00.971Z,15.87
2019-02-24T02:00:29.456Z,16.97
2019-02-24T02:02:57.941Z,16.10
2019-02-24T02:05:26.453Z,14.97
2019-02-24T02:07:54.950Z,15.37
2019-02-24T02:10:23.420Z,13.90
2019-02-24T02:12:51.928Z,13.63
2019-02-24T02:15:20.425Z,12.97
2019-02-24T02:17:48.903Z,12.63
2019-02-24T02:20:17.452Z,14.50
2019-02-24T02:22:45.929Z,13.53
2019-02-24T02:25:14.607Z,14.20
2019-02-24T02:27:43.083Z,12.60
2019-02-24T02:30:12.090Z,12.63
2019-02-24T02:32:40.758Z,13.63
2019-02-24T02:35:09.326Z,13.93
2019-02-24T02:37:37.817Z,13.73
2019-02-24T02:40:08.268Z,14.70
2019-02-24T02:42:36.780Z,13.80
2019-02-24T02:45:07.983Z,14.20
2019-02-24T02:47:36.469Z,15.47
2019-02-24T02:50:06.008Z,14.50
2019-02-24T02:52:34.519Z,14.00
2019-02-24T02:55:03.076Z,14.27
2019-02-24T02:57:31.655Z,12.80
2019-02-24T03:00:00.261Z,13.53
2019-02-24T03:02:28.785Z,13.77
2019-02-24T03:04:57.357Z,13.43
2019-02-24T03:07:27.501Z,14.00
2019-02-24T03:09:56.045Z,14.80
2019-02-24T03:12:24.535Z,13.40
2019-02-24T03:14:53.045Z,13.57
2019-02-24T03:17:21.528Z,13.10
2019-02-24T03:19:50.014Z,12.00
2019-02-24T03:22:18.532Z,13.23
2019-02-24T03:24:47.010Z,13.77
2019-02-24T03:27:15.469Z,13.47
2019-02-24T03:29:43.949Z,14.07
2019-02-24T03:32:12.459Z,14.00
2019-02-24T03:34:41.007Z,14.13
2019-02-24T03:37:09.583Z,13.10
2019-02-24T03:39:38.057Z,13.80
2019-02-24T03:42:06.534Z,14.40
2019-02-24T03:44:35.040Z,13.27
2019-02-24T03:47:03.564Z,13.47
2019-02-24T03:49:32.109Z,13.97
2019-02-24T03:52:00.608Z,14.17
2019-02-24T03:54:29.120Z,15.40
2019-02-24T03:56:57.601Z,13.30
2019-02-24T03:59:26.090Z,14.90
2019-02-24T04:01:54.629Z,14.43
2019-02-24T04:04:23.160Z,14.30
2019-02-24T04:06:51.636Z,13.63
2019-02-24T04:09:20.129Z,14.27
2019-02-24T04:11:48.620Z,12.90
2019-02-24T04:14:17.101Z,14.53
2019-02-24T04:16:50.591Z,12.70
2019-02-24T04:19:19.053Z,13.97
2019-02-24T04:21:47.533Z,13.53
2019-02-24T04:24:16.177Z,14.00
2019-02-24T04:26:44.665Z,12.97
2019-02-24T04:29:24.340Z,12.27
2019-02-24T04:31:45.384Z,13.60
2019-02-24T04:34:13.913Z,13.93
2019-02-24T04:36:42.477Z,11.80
2019-02-24T04:39:10.991Z,13.53
2019-02-24T04:41:40.537Z,13.50
2019-02-24T04:44:09.029Z,13.00
2019-02-24T04:46:37.588Z,12.40
2019-02-24T04:49:06.275Z,11.83
2019-02-24T04:51:34.887Z,11.43
2019-02-24T04:54:03.361Z,12.27
2019-02-24T04:56:31.865Z,12.37
2019-02-24T04:59:00.361Z,11.73
2019-02-24T05:01:28.886Z,11.17
2019-02-24T05:03:57.391Z,12.13
2019-02-24T05:06:25.972Z,12.53
2019-02-24T05:08:54.454Z,12.53
2019-02-24T05:11:22.952Z,12.60
2019-02-24T05:13:51.797Z,13.10
2019-02-24T05:16:20.305Z,13.17
2019-02-24T05:18:48.813Z,12.53
2019-02-24T05:21:17.288Z,12.77
2019-02-24T05:23:46.089Z,13.77
2019-02-24T05:26:14.661Z,13.40
2019-02-24T05:28:43.138Z,13.70
2019-02-24T05:31:11.624Z,13.63
2019-02-24T05:33:40.111Z,14.73
2019-02-24T05:36:08.595Z,14.57
2019-02-24T05:38:37.081Z,13.70
2019-02-24T05:41:05.582Z,13.00
2019-02-24T05:43:34.050Z,13.67
2019-02-24T05:46:02.707Z,13.77
2019-02-24T05:48:33.521Z,13.47
2019-02-24T05:51:01.489Z,12.47
2019-02-24T05:53:30.000Z,12.83
2019-02-24T05:55:58.493Z,13.07
2019-02-24T05:58:27.025Z,12.77
2019-02-24T06:00:55.532Z,11.97
2019-02-24T06:03:24.024Z,11.70
2019-02-24T06:05:52.475Z,12.17
2019-02-24T06:08:20.936Z,13.37
2019-02-24T06:10:49.436Z,12.07
2019-02-24T06:13:17.912Z,12.77
2019-02-24T06:15:46.624Z,12.97
2019-02-24T06:18:15.098Z,12.80
2019-02-24T06:20:43.662Z,12.23
2019-02-24T06:23:12.141Z,12.73
2019-02-24T06:25:40.661Z,13.10
2019-02-24T06:28:09.152Z,13.07
2019-02-24T06:30:37.668Z,12.73
2019-02-24T06:33:06.482Z,12.77
2019-02-24T06:35:36.055Z,13.67
2019-02-24T06:38:04.885Z,13.20
2019-02-24T06:40:33.627Z,13.60
2019-02-24T06:43:02.180Z,12.90
2019-02-24T06:45:30.685Z,13.07
2019-02-24T06:47:59.158Z,13.27
2019-02-24T06:50:35.450Z,12.90
2019-02-24T06:52:59.473Z,12.20
2019-02-24T06:55:27.941Z,12.40
2019-02-24T06:57:56.697Z,13.17
2019-02-24T07:00:25.248Z,12.03
2019-02-24T07:02:53.790Z,12.33
2019-02-24T07:05:22.293Z,12.63
2019-02-24T07:08:05.799Z,12.20
2019-02-24T07:10:34.448Z,11.87
2019-02-24T07:13:02.955Z,11.20
2019-02-24T07:15:31.514Z,12.23
2019-02-24T07:18:10.015Z,12.70
2019-02-24T07:20:38.551Z,13.43
2019-02-24T07:23:07.087Z,13.47
2019-02-24T07:25:35.561Z,12.80
2019-02-24T07:28:04.212Z,13.37
2019-02-24T07:30:32.681Z,12.90
2019-02-24T07:33:01.207Z,12.73
2019-02-24T07:35:29.789Z,12.20
2019-02-24T07:37:58.590Z,12.20
2019-02-24T07:40:27.094Z,12.27
2019-02-24T07:42:55.604Z,13.17
2019-02-24T07:45:24.395Z,12.17
2019-02-24T07:47:52.961Z,12.67
2019-02-24T07:50:21.432Z,11.73
2019-02-24T07:52:49.905Z,12.30
2019-02-24T07:55:18.585Z,11.90
2019-02-24T07:57:47.105Z,12.20
2019-02-24T08:00:15.591Z,13.17
2019-02-24T08:02:44.969Z,12.33
2019-02-24T08:05:13.536Z,12.00
2019-02-24T08:07:42.198Z,11.87
2019-02-24T08:10:12.686Z,12.10
2019-02-24T08:12:41.021Z,11.80
2019-02-24T08:15:10.434Z,12.87
2019-02-24T08:17:38.994Z,12.17
2019-02-24T08:20:09.610Z,11.67
2019-02-24T08:22:38.157Z,11.97
2019-02-24T08:25:07.598Z,10.97
2019-02-24T08:27:36.317Z,12.60
2019-02-24T08:30:07.596Z,13.63
2019-02-24T08:32:36.119Z,13.30
2019-02-24T08:35:06.293Z,14.10
2019-02-24T08:37:34.856Z,14.03
2019-02-24T08:40:04.090Z,14.30
2019-02-24T08:42:32.581Z,13.80
2019-02-24T08:45:01.064Z,13.83
2019-02-24T08:47:34.656Z,13.53
2019-02-24T08:50:03.336Z,12.90
2019-02-24T08:52:31.818Z,13.50
2019-02-24T08:55:00.383Z,13.57
2019-02-24T08:57:28.852Z,13.20
2019-02-24T08:59:57.508Z,14.67
2019-02-24T09:02:26.056Z,14.43
2019-02-24T09:04:54.597Z,13.77
2019-02-24T09:07:23.077Z,14.83
2019-02-24T09:09:51.638Z,13.40
2019-02-24T09:12:20.194Z,14.03
2019-02-24T09:14:48.842Z,13.80
2019-02-24T09:17:17.345Z,12.87
2019-02-24T09:19:45.833Z,16.00
2019-02-24T09:22:14.482Z,14.40
2019-02-24T09:24:43.066Z,15.80
2019-02-24T09:27:11.575Z,15.70
2019-02-24T09:29:40.115Z,16.20
2019-02-24T09:32:08.713Z,15.10
2019-02-24T09:34:37.260Z,15.70
2019-02-24T09:37:05.754Z,14.60
2019-02-24T09:39:34.421Z,15.87
2019-02-24T09:42:03.944Z,15.63
2019-02-24T09:44:32.673Z,15.97
2019-02-24T09:47:01.235Z,15.53
2019-02-24T09:49:29.736Z,16.17
2019-02-24T09:51:58.213Z,14.57
2019-02-24T09:54:26.693Z,15.43
2019-02-24T09:56:55.190Z,14.97
2019-02-24T09:59:23.652Z,14.53
2019-02-24T10:01:52.158Z,14.33
2019-02-24T10:04:20.700Z,15.53
2019-02-24T10:06:49.194Z,15.30
2019-02-24T10:09:17.870Z,15.33
2019-02-24T10:11:46.442Z,15.70
2019-02-24T10:14:14.949Z,14.77
2019-02-24T10:16:43.457Z,14.20
2019-02-24T10:19:11.958Z,15.03
2019-02-24T10:21:40.477Z,15.37
2019-02-24T10:24:09.050Z,14.63
2019-02-24T10:26:37.613Z,14.10
2019-02-24T10:29:06.181Z,15.47
2019-02-24T10:31:34.663Z,15.00
2019-02-24T10:34:03.222Z,14.90
2019-02-24T10:36:31.734Z,14.43
2019-02-24T10:39:00.200Z,14.30
2019-02-24T10:41:28.680Z,14.20
2019-02-24T10:43:57.184Z,15.23
2019-02-24T10:46:25.668Z,14.47
2019-02-24T10:49:02.913Z,14.17
2019-02-24T10:51:25.453Z,14.03
2019-02-24T10:53:54.056Z,13.63
2019-02-24T10:56:22.561Z,14.03
2019-02-24T10:58:51.060Z,15.30
2019-02-24T11:01:27.104Z,13.90
2019-02-24T11:03:49.752Z,13.57
2019-02-24T11:06:18.325Z,15.00
2019-02-24T11:08:46.926Z,14.93
2019-02-24T11:11:15.497Z,15.63
2019-02-24T11:13:43.974Z,14.97
2019-02-24T11:16:12.718Z,15.00
2019-02-24T11:18:41.318Z,14.90
2019-02-24T11:21:09.878Z,15.20
2019-02-24T11:23:38.438Z,15.30
2019-02-24T11:26:07.065Z,15.93
2019-02-24T11:28:35.568Z,14.70
2019-02-24T11:31:04.173Z,14.07
2019-02-24T11:33:32.653Z,14.97
2019-02-24T11:36:01.157Z,14.43
2019-02-24T11:38:29.628Z,13.93
2019-02-24T11:40:58.297Z,13.73
2019-02-24T11:43:26.876Z,13.87
2019-02-24T11:45:55.343Z,14.20
2019-02-24T11:48:23.834Z,13.97
2019-02-24T11:50:52.401Z,14.77
2019-02-24T11:53:20.920Z,13.67
2019-02-24T11:55:49.493Z,13.87
2019-02-24T11:58:23.153Z,13.93
2019-02-24T12:00:51.633Z,14.07
2019-02-24T12:03:20.148Z,14.80
2019-02-24T12:05:48.713Z,14.20
2019-02-24T12:08:17.282Z,13.87
2019-02-24T12:10:45.865Z,14.10
2019-02-24T12:13:14.439Z,14.20
2019-02-24T12:15:42.949Z,13.90
2019-02-24T12:18:11.444Z,13.60
2019-02-24T12:20:39.919Z,14.10
2019-02-24T12:23:08.513Z,12.80
2019-02-24T12:25:37.000Z,14.53
2019-02-24T12:28:05.573Z,14.20
2019-02-24T12:30:34.219Z,14.10
2019-02-24T12:33:02.726Z,14.17
2019-02-24T12:35:31.212Z,14.00
2019-02-24T12:37:59.773Z,14.40
2019-02-24T12:40:28.317Z,14.20
2019-02-24T12:42:56.856Z,14.20
2019-02-24T12:45:25.340Z,13.60
2019-02-24T12:47:53.837Z,12.97
2019-02-24T12:50:22.342Z,14.17
2019-02-24T12:52:50.930Z,13.57
2019-02-24T12:55:19.386Z,13.57
2019-02-24T12:57:52.837Z,12.73
2019-02-24T13:00:24.033Z,13.83
2019-02-24T13:02:52.540Z,12.17
2019-02-24T13:05:21.124Z,12.60
2019-02-24T13:07:49.620Z,13.47
2019-02-24T13:10:19.240Z,13.90
2019-02-24T13:12:47.742Z,13.30
2019-02-24T13:15:16.221Z,12.90
2019-02-24T13:17:44.740Z,12.33
2019-02-24T13:20:13.572Z,12.57
2019-02-24T13:22:42.193Z,12.70
2019-02-24T13:25:12.437Z,13.00
2019-02-24T13:27:40.964Z,12.20
2019-02-24T13:30:11.945Z,11.23
2019-02-24T13:32:40.975Z,11.67
2019-02-24T13:35:10.025Z,12.00
2019-02-24T13:37:38.605Z,10.83
2019-02-24T13:40:10.476Z,9.17
2019-02-24T13:42:39.100Z,8.53
2019-02-24T13:45:10.761Z,8.03
2019-02-24T13:47:39.264Z,7.30
2019-02-24T13:50:07.981Z,7.10
2019-02-24T13:52:36.484Z,6.40
2019-02-24T13:55:07.887Z,6.13
2019-02-24T13:57:36.529Z,6.63
2019-02-24T14:00:16.461Z,6.17
2019-02-24T14:02:45.027Z,7.40
2019-02-24T14:05:14.543Z,8.60
2019-02-24T14:07:43.105Z,8.00
2019-02-24T14:10:15.165Z,9.17
2019-02-24T14:12:43.668Z,7.93
2019-02-24T14:15:16.041Z,8.70
2019-02-24T14:17:44.598Z,8.17
2019-02-24T14:20:15.208Z,9.03
2019-02-24T14:22:43.698Z,9.30
2019-02-24T14:25:13.432Z,9.07
2019-02-24T14:27:46.938Z,8.00
2019-02-24T14:30:17.529Z,7.60
2019-02-24T14:32:46.040Z,7.50
2019-02-24T14:35:17.116Z,7.70
2019-02-24T14:37:45.589Z,10.90
2019-02-24T14:40:14.440Z,11.37
2019-02-24T14:42:43.112Z,12.80
2019-02-24T14:45:14.635Z,13.37
2019-02-24T14:47:43.225Z,14.70
2019-02-24T14:50:12.152Z,14.43
2019-02-24T14:52:40.651Z,14.70
2019-02-24T14:55:13.684Z,14.93
2019-02-24T14:57:42.252Z,14.23
2019-02-24T15:00:17.769Z,13.50
2019-02-24T15:02:46.323Z,14.77
2019-02-24T15:05:16.650Z,14.17
2019-02-24T15:07:45.757Z,14.33
2019-02-24T15:10:20.316Z,13.83
2019-02-24T15:12:48.804Z,14.53
2019-02-24T15:15:26.398Z,13.63
2019-02-24T15:17:53.360Z,13.97
2019-02-24T15:20:22.808Z,14.50
2019-02-24T15:22:51.473Z,13.83
2019-02-24T15:25:20.177Z,14.47
2019-02-24T15:27:48.852Z,14.93
2019-02-24T15:30:23.632Z,15.03
2019-02-24T15:32:52.335Z,15.00
2019-02-24T15:35:20.931Z,15.13
2019-02-24T15:37:49.466Z,14.47
2019-02-24T15:40:17.947Z,14.40
2019-02-24T15:42:46.539Z,14.93
2019-02-24T15:45:15.118Z,14.90
2019-02-24T15:47:43.721Z,15.20
2019-02-24T15:50:13.573Z,14.80
2019-02-24T15:52:42.217Z,14.83
2019-02-24T15:55:14.929Z,14.73
2019-02-24T15:57:43.481Z,14.23
2019-02-24T16:00:19.677Z,14.63
2019-02-24T16:02:48.315Z,14.27
2019-02-24T16:05:16.886Z,14.13
2019-02-24T16:07:45.380Z,14.57
2019-02-24T16:10:16.773Z,13.87
2019-02-24T16:12:45.332Z,14.67
2019-02-24T16:15:16.258Z,14.73
2019-02-24T16:17:44.756Z,13.67
2019-02-24T16:20:18.980Z,15.77
2019-02-24T16:22:47.445Z,14.97
2019-02-24T16:25:15.943Z,14.23
2019-02-24T16:27:44.661Z,15.13
2019-02-24T16:30:14.958Z,16.27
2019-02-24T16:32:43.650Z,15.00
2019-02-24T16:35:16.929Z,15.67
2019-02-24T16:37:45.590Z,14.20
2019-02-24T16:40:22.590Z,13.93
2019-02-24T16:42:51.104Z,16.00
2019-02-24T16:45:19.788Z,17.27
2019-02-24T16:47:48.342Z,16.10
2019-02-24T16:50:21.715Z,16.57
2019-02-24T16:52:50.213Z,15.23
2019-02-24T16:55:18.952Z,15.03
2019-02-24T16:57:47.813Z,14.37
2019-02-24T17:00:23.767Z,16.20
2019-02-24T17:02:52.352Z,16.23
2019-02-24T17:05:21.030Z,14.50
2019-02-24T17:07:49.736Z,15.03
2019-02-24T17:10:23.286Z,14.67
2019-02-24T17:12:51.776Z,13.57
2019-02-24T17:15:20.400Z,14.10
2019-02-24T17:17:48.921Z,14.30
2019-02-24T17:20:20.002Z,14.10
2019-02-24T17:22:48.600Z,15.00
2019-02-24T17:25:17.246Z,16.93
2019-02-24T17:27:45.871Z,13.47
2019-02-24T17:30:16.030Z,14.60
2019-02-24T17:32:44.599Z,14.43
2019-02-24T17:35:13.724Z,14.63
2019-02-24T17:37:42.195Z,12.87
2019-02-24T17:40:19.687Z,13.63
2019-02-24T17:42:48.288Z,14.80
2019-02-24T17:45:17.462Z,15.67
2019-02-24T17:47:46.169Z,16.70
2019-02-24T17:50:18.216Z,15.43
2019-02-24T17:52:46.764Z,17.13
2019-02-24T17:55:16.402Z,15.00
2019-02-24T17:57:45.054Z,14.60
2019-02-24T18:00:20.526Z,14.33
2019-02-24T18:02:49.039Z,14.63
2019-02-24T18:05:17.545Z,13.70
2019-02-24T18:07:46.047Z,14.07
2019-02-24T18:10:14.564Z,13.43
2019-02-24T18:12:43.288Z,14.00
2019-02-24T18:15:13.215Z,13.30
2019-02-24T18:17:41.770Z,13.43
2019-02-24T18:20:18.303Z,13.53
2019-02-24T18:22:46.914Z,14.60
2019-02-24T18:25:15.473Z,14.33
2019-02-24T18:27:43.958Z,12.73
2019-02-24T18:30:23.191Z,13.57
2019-02-24T18:32:51.753Z,13.77
2019-02-24T18:35:20.329Z,11.87
2019-02-24T18:37:48.869Z,11.87
2019-02-24T18:40:17.360Z,12.03
2019-02-24T18:42:45.846Z,11.50
2019-02-24T18:45:15.080Z,12.40
2019-02-24T18:47:43.802Z,11.73
2019-02-24T18:50:15.053Z,11.33
2019-02-24T18:52:43.646Z,11.70
2019-02-24T18:55:13.103Z,11.17
2019-02-24T18:57:41.635Z,11.87
2019-02-24T19:00:18.463Z,12.07
2019-02-24T19:02:47.112Z,11.27
2019-02-24T19:05:15.714Z,11.50
2019-02-24T19:07:44.332Z,10.87
2019-02-24T19:10:17.769Z,10.53
2019-02-24T19:12:46.299Z,9.90
2019-02-24T19:15:17.687Z,10.03
2019-02-24T19:17:46.567Z,9.97
2019-02-24T19:20:17.416Z,10.63
2019-02-24T19:22:46.088Z,12.17
2019-02-24T19:25:14.649Z,10.73
2019-02-24T19:27:43.247Z,11.80
2019-02-24T19:30:16.856Z,10.20
2019-02-24T19:32:45.477Z,11.60
2019-02-24T19:35:15.308Z,12.37
2019-02-24T19:37:43.985Z,12.73
2019-02-24T19:40:15.272Z,12.00
2019-02-24T19:42:43.761Z,12.87
2019-02-24T19:45:15.092Z,12.70
2019-02-24T19:47:43.663Z,12.67
2019-02-24T19:50:14.550Z,11.97
2019-02-24T19:52:43.048Z,12.37
2019-02-24T19:55:13.597Z,12.27
2019-02-24T19:57:42.332Z,12.10
2019-02-24T20:00:25.270Z,12.80
2019-02-24T20:02:54.200Z,10.90
2019-02-24T20:05:22.901Z,10.73
2019-02-24T20:07:51.396Z,10.40
2019-02-24T20:10:22.454Z,8.60
2019-02-24T20:12:51.003Z,7.90
2019-02-24T20:15:20.104Z,9.90
2019-02-24T20:17:48.704Z,11.47
2019-02-24T20:20:17.613Z,10.13
2019-02-24T20:22:46.185Z,9.50
2019-02-24T20:25:19.546Z,8.87
2019-02-24T20:27:48.092Z,12.60
2019-02-24T20:30:34.659Z,13.03
2019-02-24T20:33:03.258Z,12.40
2019-02-24T20:35:31.737Z,13.73
2019-02-24T20:38:00.231Z,13.10
2019-02-24T20:40:28.879Z,15.03
2019-02-24T20:42:57.695Z,13.80
2019-02-24T20:45:26.245Z,13.70
2019-02-24T20:47:55.090Z,13.50
2019-02-24T20:50:25.832Z,11.40
2019-02-24T20:52:54.333Z,11.33
2019-02-24T20:55:23.038Z,10.83
2019-02-24T20:57:51.656Z,11.47
2019-02-24T21:00:23.097Z,13.30
2019-02-24T21:02:53.081Z,12.60
2019-02-24T21:05:21.620Z,10.50
2019-02-24T21:07:50.192Z,12.40
2019-02-24T21:10:18.745Z,13.13
2019-02-24T21:12:47.228Z,12.57
2019-02-24T21:15:17.500Z,12.40
2019-02-24T21:17:46.047Z,12.17
2019-02-24T21:20:17.325Z,11.40
2019-02-24T21:22:45.973Z,12.93
2019-02-24T21:25:14.469Z,12.77
2019-02-24T21:27:43.044Z,12.13
2019-02-24T21:30:14.597Z,12.23
2019-02-24T21:32:43.086Z,12.13
2019-02-24T21:35:12.024Z,11.43
2019-02-24T21:37:40.511Z,10.93
2019-02-24T21:40:14.573Z,10.63
2019-02-24T21:42:43.082Z,9.77
2019-02-24T21:45:22.224Z,10.80
2019-02-24T21:47:50.713Z,10.60
2019-02-24T21:50:19.172Z,11.53
2019-02-24T21:52:47.893Z,10.83
2019-02-24T21:55:16.628Z,10.67
2019-02-24T21:57:45.530Z,11.07
2019-02-24T22:00:22.015Z,9.83
2019-02-24T22:02:50.651Z,9.67
2019-02-24T22:05:19.732Z,9.97
2019-02-24T22:07:48.349Z,9.57
2019-02-24T22:10:17.058Z,9.50
2019-02-24T22:12:45.625Z,8.87
2019-02-24T22:15:19.390Z,10.57
2019-02-24T22:17:47.911Z,9.27
2019-02-24T22:20:16.437Z,9.17
2019-02-24T22:22:45.580Z,9.53
2019-02-24T22:25:15.012Z,9.73
2019-02-24T22:27:43.613Z,9.63
2019-02-24T22:30:24.133Z,9.10
2019-02-24T22:32:52.777Z,9.67
2019-02-24T22:35:21.308Z,8.83
2019-02-24T22:37:49.818Z,8.80
2019-02-24T22:40:18.468Z,9.70
2019-02-24T22:42:47.010Z,8.43
2019-02-24T22:45:21.102Z,8.67
2019-02-24T22:47:50.177Z,8.93
2019-02-24T22:50:18.737Z,8.60
2019-02-24T22:52:47.302Z,8.80
2019-02-24T22:55:17.541Z,8.00
2019-02-24T22:57:46.217Z,8.70
2019-02-24T23:00:24.645Z,8.50
2019-02-24T23:02:53.288Z,8.33
2019-02-24T23:05:21.804Z,8.10
2019-02-24T23:07:50.300Z,7.90
2019-02-24T23:10:18.773Z,7.53
2019-02-24T23:12:47.253Z,8.27
2019-02-24T23:15:15.742Z,8.07
2019-02-24T23:17:44.223Z,8.30
2019-02-24T23:20:12.853Z,7.90
2019-02-24T23:22:41.352Z,8.90
2019-02-24T23:25:09.847Z,8.03
2019-02-24T23:27:38.388Z,7.23
2019-02-24T23:30:09.484Z,7.57
2019-02-24T23:32:37.967Z,7.50
2019-02-24T23:35:07.436Z,7.50
2019-02-24T23:37:35.952Z,7.67
2019-02-24T23:40:07.559Z,7.60
2019-02-24T23:42:36.061Z,7.30
2019-02-24T23:45:10.727Z,7.43
2019-02-24T23:47:40.106Z,7.67
2019-02-24T23:50:13.012Z,7.40
2019-02-24T23:52:41.483Z,7.03
2019-02-24T23:55:10.898Z,7.17
2019-02-24T23:57:39.387Z,7.03
